Time;durP1;ratioP1;P1;durP2;ratioP2;P2;SDS_P1;SDS_P2;PMS_P1;PMS_P2;Temp;Humidity;BMP_temperature;BMP_pressure;BME280_temperature;BME280_humidity;BME280_pressure;Samples;Min_cycle;Max_cycle;Signal;HPM_P1;HPM_P2
2023/04/03 00:02:01;;;;;;;3.20;1.40;;;;;;;1.02;74.86;101053.33;102735;277;106289;-57
2023/04/03 00:04:42;;;;;;;4.10;1.60;;;;;;;0.99;74.92;101060.85;102712;277;114535;-57
2023/04/03 00:07:18;;;;;;;4.40;1.50;;;;;;;0.94;74.96;101063.52;102631;277;93402;-59
2023/04/03 00:09:54;;;;;;;2.70;1.10;;;;;;;0.91;74.76;101063.59;102745;277;97443;-57
2023/04/03 00:12:35;;;;;;;4.60;1.50;;;;;;;0.89;74.90;101066.23;102679;277;120134;-54
2023/04/03 00:15:11;;;;;;;2.60;1.10;;;;;;;0.82;74.94;101063.88;102747;277;103870;-54
2023/04/03 00:17:50;;;;;;;3.60;1.40;;;;;;;0.74;74.95;101068.88;102711;277;113019;-53
2023/04/03 00:20:29;;;;;;;3.40;1.20;;;;;;;0.69;74.77;101069.98;102699;277;92927;-53
2023/04/03 00:23:05;;;;;;;2.70;1.20;;;;;;;0.64;74.76;101068.77;102703;277;97266;-59
2023/04/03 00:25:44;;;;;;;1.90;0.80;;;;;;;0.58;74.62;101072.90;102711;277;119667;-57
2023/04/03 00:28:27;;;;;;;5.00;1.40;;;;;;;0.53;74.59;101074.84;102735;277;104621;-53
2023/04/03 00:31:06;;;;;;;3.70;1.20;;;;;;;0.46;74.52;101073.95;102761;277;113466;-56
2023/04/03 00:33:40;;;;;;;2.70;1.40;;;;;;;0.39;74.45;101075.14;102720;277;94255;-57
2023/04/03 00:36:25;;;;;;;4.30;1.20;;;;;;;0.33;74.44;101076.64;102706;277;97945;-53
2023/04/03 00:39:01;;;;;;;2.80;1.00;;;;;;;0.31;74.43;101075.91;102724;277;119114;-51
2023/04/03 00:41:37;;;;;;;4.00;1.40;;;;;;;0.29;74.31;101075.51;102755;266;104497;-52
2023/04/03 00:44:56;;;;;;;3.90;1.30;;;;;;;0.29;74.08;101077.07;102689;277;114377;-53
2023/04/03 00:47:33;;;;;;;3.00;1.10;;;;;;;0.31;74.06;101082.09;102689;277;93711;-58
2023/04/03 00:50:10;;;;;;;5.40;1.50;;;;;;;0.28;74.20;101079.96;102767;277;95974;-56
2023/04/03 00:52:48;;;;;;;4.80;1.30;;;;;;;0.25;74.19;101081.27;102694;277;117200;-52
2023/04/03 00:55:28;;;;;;;4.80;1.50;;;;;;;0.20;74.16;101080.75;102714;277;104654;-52
2023/04/03 00:58:06;;;;;;;2.70;1.20;;;;;;;0.15;74.17;101078.77;102726;277;114172;-53
2023/04/03 01:00:48;;;;;;;3.10;1.20;;;;;;;0.09;74.06;101086.29;102714;277;92168;-52
2023/04/03 01:03:24;;;;;;;2.30;1.10;;;;;;;0.03;74.07;101085.84;102723;277;95447;-53
2023/04/03 01:06:05;;;;;;;3.30;1.20;;;;;;;-0.02;74.02;101084.05;102727;277;120766;-54
2023/04/03 01:08:43;;;;;;;5.40;1.50;;;;;;;-0.08;73.98;101087.65;102720;277;105703;-57
2023/04/03 01:11:24;;;;;;;3.00;1.60;;;;;;;-0.14;74.02;101089.13;102657;277;114174;-56
2023/04/03 01:14:06;;;;;;;2.90;1.00;;;;;;;-0.18;74.06;101094.52;102675;277;94739;-56
2023/04/03 01:16:54;;;;;;;2.20;0.90;;;;;;;-0.21;74.05;101098.45;102692;277;97607;-53
2023/04/03 01:19:35;;;;;;;3.30;1.40;;;;;;;-0.20;74.13;101103.86;102714;277;118666;-53
2023/04/03 01:22:20;;;;;;;4.90;1.80;;;;;;;-0.22;74.17;101112.48;102703;277;104482;-57
2023/04/03 01:25:07;;;;;;;3.30;1.10;;;;;;;-0.23;74.20;101114.52;102698;277;113886;-57
2023/04/03 01:27:45;;;;;;;3.60;0.90;;;;;;;-0.24;74.06;101122.04;102701;277;93836;-57
2023/04/03 01:30:23;;;;;;;4.60;1.40;;;;;;;-0.28;74.06;101119.96;102713;277;97643;-57
2023/04/03 01:33:00;;;;;;;2.70;0.80;;;;;;;-0.30;73.92;101123.52;102691;277;120640;-57
2023/04/03 01:35:38;;;;;;;3.30;1.00;;;;;;;-0.33;73.87;101126.16;102737;277;106306;-57
2023/04/03 01:38:15;;;;;;;3.80;1.30;;;;;;;-0.37;73.88;101128.92;102743;277;113315;-56
2023/04/03 01:40:59;;;;;;;3.50;1.40;;;;;;;-0.40;73.85;101134.13;102734;277;92477;-56
2023/04/03 01:43:45;;;;;;;3.90;1.40;;;;;;;-0.45;73.88;101131.95;102744;277;97392;-52
2023/04/03 01:46:29;;;;;;;3.40;1.00;;;;;;;-0.51;73.91;101133.22;102711;277;119654;-57
2023/04/03 01:49:13;;;;;;;3.20;1.60;;;;;;;-0.53;73.83;101134.99;102714;277;105906;-57
2023/04/03 01:51:55;;;;;;;2.10;1.00;;;;;;;-0.55;73.89;101136.19;102694;277;113290;-53
2023/04/03 01:54:35;;;;;;;2.50;1.10;;;;;;;-0.54;73.95;101132.77;102695;277;92291;-53
2023/04/03 01:57:20;;;;;;;2.40;0.90;;;;;;;-0.53;73.99;101138.50;102724;277;98558;-53
2023/04/03 02:00:03;;;;;;;2.80;1.20;;;;;;;-0.54;73.97;101141.38;102700;275;118825;-53
2023/04/03 02:02:51;;;;;;;3.70;2.40;;;;;;;-0.56;74.09;101143.84;102703;277;105352;-53
2023/04/03 02:05:30;;;;;;;2.00;0.70;;;;;;;-0.59;74.01;101146.31;102715;277;114470;-53
2023/04/03 02:08:07;;;;;;;2.80;1.10;;;;;;;-0.63;74.02;101151.52;102717;277;93962;-53
2023/04/03 02:10:49;;;;;;;1.90;0.90;;;;;;;-0.66;73.96;101148.32;102707;277;97047;-52
2023/04/03 02:13:25;;;;;;;3.40;1.10;;;;;;;-0.69;74.03;101156.16;102699;277;119944;-52
2023/04/03 02:16:09;;;;;;;2.30;1.00;;;;;;;-0.73;74.00;101153.96;102714;277;105394;-56
2023/04/03 02:18:51;;;;;;;3.60;1.70;;;;;;;-0.78;73.99;101157.97;102713;277;114862;-56
2023/04/03 02:21:32;;;;;;;2.80;1.10;;;;;;;-0.79;74.03;101159.25;102682;277;95367;-56
2023/04/03 02:24:09;;;;;;;3.20;1.20;;;;;;;-0.80;74.09;101162.05;102227;277;555717;-56
2023/04/03 02:26:48;;;;;;;3.80;1.10;;;;;;;-0.79;74.15;101162.63;102683;277;118963;-53
2023/04/03 02:29:24;;;;;;;4.50;1.20;;;;;;;-0.79;74.23;101167.98;102734;277;105780;-53
2023/04/03 02:32:03;;;;;;;4.50;1.30;;;;;;;-0.80;74.16;101171.95;102742;277;114579;-57
2023/04/03 02:34:40;;;;;;;3.00;1.40;;;;;;;-0.79;74.16;101170.08;102720;277;93316;-57
2023/04/03 02:37:17;;;;;;;3.20;1.00;;;;;;;-0.82;74.12;101170.10;102724;277;98121;-53
2023/04/03 02:39:54;;;;;;;2.80;1.00;;;;;;;-0.86;74.10;101175.28;102694;277;119698;-52
2023/04/03 02:42:28;;;;;;;4.40;1.20;;;;;;;-0.88;74.04;101176.82;102755;277;105578;-52
2023/04/03 02:45:04;;;;;;;4.70;1.00;;;;;;;-0.93;74.12;101178.95;102699;277;112112;-52
2023/04/03 02:47:43;;;;;;;4.00;1.00;;;;;;;-1.00;74.13;101179.22;102737;277;93550;-53
2023/04/03 02:50:27;;;;;;;2.50;0.90;;;;;;;-1.07;74.24;101185.51;102682;277;98123;-53
2023/04/03 02:53:06;;;;;;;2.30;1.00;;;;;;;-1.12;74.27;101188.32;102714;277;120616;-53
2023/04/03 02:55:46;;;;;;;3.10;1.10;;;;;;;-1.15;74.29;101189.55;102708;277;106021;-54
2023/04/03 02:58:24;;;;;;;2.80;0.90;;;;;;;-1.16;74.29;101189.96;102725;277;114877;-57
2023/04/03 03:00:58;;;;;;;4.00;1.30;;;;;;;-1.16;74.44;101188.55;102740;277;93585;-55
2023/04/03 03:03:34;;;;;;;4.00;1.30;;;;;;;-1.15;74.51;101189.20;102714;277;98227;-57
2023/04/03 03:06:14;;;;;;;3.20;1.20;;;;;;;-1.15;74.61;101187.42;102761;277;119116;-52
2023/04/03 03:08:54;;;;;;;4.40;1.20;;;;;;;-1.18;74.54;101189.73;102735;277;105935;-53
2023/04/03 03:11:34;;;;;;;2.90;1.00;;;;;;;-1.24;74.69;101191.54;102519;277;114682;-53
2023/04/03 03:14:12;;;;;;;2.00;0.80;;;;;;;-1.30;74.67;101189.73;102729;277;94252;-53
2023/04/03 03:16:50;;;;;;;3.10;1.30;;;;;;;-1.35;74.75;101187.59;102753;277;97968;-53
2023/04/03 03:19:39;;;;;;;2.70;1.00;;;;;;;-1.40;74.71;101184.41;102744;277;119560;-55
2023/04/03 03:22:17;;;;;;;2.70;1.40;;;;;;;-1.46;74.76;101187.58;102716;277;105368;-56
2023/04/03 03:24:53;;;;;;;3.20;1.40;;;;;;;-1.50;74.83;101187.68;102698;277;113186;-57
2023/04/03 03:27:33;;;;;;;4.40;1.30;;;;;;;-1.55;74.93;101186.56;102741;277;94924;-60
2023/04/03 03:30:10;;;;;;;5.80;1.60;;;;;;;-1.58;75.15;101189.77;102737;277;97839;-57
2023/04/03 03:32:53;;;;;;;3.80;1.70;;;;;;;-1.56;75.19;101192.83;102774;266;119227;-58
2023/04/03 03:35:35;;;;;;;5.70;2.30;;;;;;;-1.57;75.27;101193.77;102688;277;106139;-57
2023/04/03 03:38:13;;;;;;;6.50;2.40;;;;;;;-1.57;75.39;101193.23;102682;277;114735;-57
2023/04/03 03:41:02;;;;;;;8.30;3.10;;;;;;;-1.59;75.45;101197.24;102735;277;93989;-57
2023/04/03 03:43:39;;;;;;;3.50;1.90;;;;;;;-1.64;75.45;101195.60;102691;277;98053;-52
2023/04/03 03:46:17;;;;;;;4.70;1.70;;;;;;;-1.66;75.47;101198.35;102726;277;120603;-56
2023/04/03 03:48:57;;;;;;;4.80;1.70;;;;;;;-1.68;75.47;101198.69;102733;277;105576;-57
2023/04/03 03:51:39;;;;;;;3.70;1.70;;;;;;;-1.72;75.53;101198.73;102700;277;115460;-58
2023/04/03 03:54:15;;;;;;;4.30;1.80;;;;;;;-1.75;75.60;101199.79;102722;277;95714;-57
2023/04/03 03:56:54;;;;;;;4.20;1.60;;;;;;;-1.77;75.64;101195.70;102757;277;96249;-53
2023/04/03 03:59:31;;;;;;;3.50;1.10;;;;;;;-1.79;75.74;101198.98;102706;277;119644;-55
2023/04/03 04:02:05;;;;;;;6.70;1.70;;;;;;;-1.79;75.87;101197.71;102703;277;105401;-53
2023/04/03 04:04:40;;;;;;;4.50;1.30;;;;;;;-1.78;76.01;101196.24;102729;277;114904;-53
2023/04/03 04:07:19;;;;;;;3.10;1.60;;;;;;;-1.76;75.98;101200.09;102716;277;92941;-56
2023/04/03 04:10:00;;;;;;;2.70;1.30;;;;;;;-1.76;76.08;101200.41;102511;278;97814;-56
2023/04/03 04:12:38;;;;;;;3.10;1.40;;;;;;;-1.77;76.15;101197.65;102755;277;120326;-53
2023/04/03 04:15:14;;;;;;;3.80;1.40;;;;;;;-1.79;76.11;101204.27;102697;277;105337;-53
2023/04/03 04:17:54;;;;;;;2.90;1.20;;;;;;;-1.79;76.11;101205.81;102709;277;114516;-53
2023/04/03 04:20:33;;;;;;;5.10;1.50;;;;;;;-1.81;76.19;101204.91;102655;277;95430;-53
2023/04/03 04:23:10;;;;;;;4.40;1.70;;;;;;;-1.81;76.16;101206.65;102733;277;97382;-53
2023/04/03 04:25:49;;;;;;;2.80;1.50;;;;;;;-1.80;76.19;101210.64;102701;277;120684;-54
2023/04/03 04:28:32;;;;;;;2.90;1.40;;;;;;;-1.76;76.17;101209.58;102727;277;105806;-57
2023/04/03 04:31:09;;;;;;;4.30;1.90;;;;;;;-1.71;76.27;101215.30;102682;277;114503;-53
2023/04/03 04:33:47;;;;;;;4.20;1.70;;;;;;;-1.66;76.29;101217.22;102773;277;92612;-53
2023/04/03 04:36:21;;;;;;;5.50;1.70;;;;;;;-1.58;76.35;101222.07;102764;277;97709;-52
2023/04/03 04:39:03;;;;;;;2.80;1.30;;;;;;;-1.51;76.24;101221.10;102703;277;118654;-51
2023/04/03 04:41:40;;;;;;;2.80;1.60;;;;;;;-1.45;76.14;101220.20;102699;277;104858;-52
2023/04/03 04:44:15;;;;;;;2.90;1.30;;;;;;;-1.40;76.16;101226.99;102684;277;114723;-52
2023/04/03 04:46:51;;;;;;;4.60;1.50;;;;;;;-1.33;76.04;101231.11;102765;277;93682;-56
2023/04/03 04:49:28;;;;;;;2.60;1.00;;;;;;;-1.21;75.91;101236.23;102677;277;97492;-53
2023/04/03 04:52:03;;;;;;;4.30;1.50;;;;;;;-0.49;75.87;101236.36;102759;277;119613;-52
2023/04/03 04:54:40;;;;;;;3.90;1.70;;;;;;;0.29;75.43;101238.60;102719;277;104153;-53
2023/04/03 04:57:21;;;;;;;3.80;1.30;;;;;;;1.13;75.10;101233.48;102732;277;114877;-51
2023/04/03 05:00:02;;;;;;;2.60;1.40;;;;;;;1.74;74.19;101237.84;102712;277;92938;-52
2023/04/03 05:02:42;;;;;;;3.00;1.30;;;;;;;2.01;73.71;101236.61;102727;277;97206;-53
2023/04/03 05:05:17;;;;;;;3.10;1.60;;;;;;;2.05;72.73;101244.27;102743;266;117552;-53
2023/04/03 05:08:02;;;;;;;5.50;1.70;;;;;;;2.17;72.69;101248.33;102749;277;105727;-57
2023/04/03 05:10:42;;;;;;;5.20;1.80;;;;;;;2.60;71.78;101245.34;102718;277;114689;-57
2023/04/03 05:13:21;;;;;;;3.50;1.40;;;;;;;3.10;71.27;101244.63;102765;277;93361;-58
2023/04/03 05:16:00;;;;;;;3.00;1.40;;;;;;;3.24;70.02;101242.42;102716;277;95403;-58
2023/04/03 05:18:34;;;;;;;3.50;1.40;;;;;;;3.11;70.57;101246.71;102721;277;119792;-54
2023/04/03 05:21:09;;;;;;;3.40;1.60;;;;;;;4.38;71.21;101245.25;102732;277;104834;-54
2023/04/03 05:23:44;;;;;;;3.20;1.40;;;;;;;6.44;70.22;101239.85;102730;277;114769;-55
2023/04/03 05:26:22;;;;;;;3.40;1.40;;;;;;;7.99;68.01;101238.45;102752;277;93000;-55
2023/04/03 05:29:03;;;;;;;4.10;1.10;;;;;;;8.92;65.39;101236.64;102732;277;96668;-54
2023/04/03 05:31:49;;;;;;;3.50;1.60;;;;;;;8.40;63.65;101247.25;102739;277;120027;-59
2023/04/03 05:34:24;;;;;;;3.50;1.50;;;;;;;8.13;63.43;101251.95;102695;277;104191;-59
2023/04/03 05:37:00;;;;;;;3.30;1.20;;;;;;;9.33;62.74;101248.84;102738;275;113304;-59
2023/04/03 05:39:43;;;;;;;2.00;1.10;;;;;;;10.24;61.49;101251.02;102690;277;94272;-59
2023/04/03 05:42:23;;;;;;;3.90;1.70;;;;;;;11.15;59.84;101250.08;102759;277;98221;-54
2023/04/03 05:44:59;;;;;;;3.00;1.30;;;;;;;11.51;57.84;101250.56;102677;277;119445;-54
2023/04/03 05:47:37;;;;;;;3.30;1.40;;;;;;;10.96;56.17;101258.02;102738;277;104859;-59
2023/04/03 05:50:12;;;;;;;4.10;1.40;;;;;;;10.22;56.01;101268.29;102726;277;112151;-59
2023/04/03 05:52:57;;;;;;;3.10;1.40;;;;;;;9.05;54.19;101262.80;102723;277;94909;-59
2023/04/03 05:55:34;;;;;;;3.10;1.60;;;;;;;7.76;55.94;101270.87;102713;277;96265;-58
2023/04/03 05:58:11;;;;;;;3.30;1.40;;;;;;;7.08;55.55;101273.14;102728;277;118042;-55
2023/04/03 06:00:51;;;;;;;2.90;1.40;;;;;;;7.31;55.71;101272.50;102733;277;105578;-54
2023/04/03 06:03:28;;;;;;;4.40;1.60;;;;;;;8.69;54.46;101275.45;102679;277;113723;-55
2023/04/03 06:06:07;;;;;;;3.40;1.40;;;;;;;10.45;54.96;101266.94;102684;277;94893;-54
2023/04/03 06:08:47;;;;;;;4.40;1.70;;;;;;;12.07;53.97;101260.03;102687;277;96228;-55
2023/04/03 06:11:32;;;;;;;2.90;1.30;;;;;;;12.88;52.57;101261.46;102691;277;119649;-55
2023/04/03 06:14:10;;;;;;;3.90;1.70;;;;;;;12.73;51.83;101264.56;102715;277;106453;-54
2023/04/03 06:16:50;;;;;;;3.30;1.50;;;;;;;13.84;51.89;101267.16;102496;277;116504;-59
2023/04/03 06:19:35;;;;;;;3.70;1.50;;;;;;;14.94;51.38;101269.17;102683;277;93169;-60
2023/04/03 06:22:15;;;;;;;2.80;1.50;;;;;;;15.50;50.60;101264.09;102760;277;98153;-54
2023/04/03 06:24:57;;;;;;;3.80;1.30;;;;;;;15.97;49.19;101267.27;102677;277;119485;-54
2023/04/03 06:27:36;;;;;;;3.60;1.50;;;;;;;16.00;48.55;101271.52;102775;277;106089;-60
2023/04/03 06:30:12;;;;;;;3.70;1.80;;;;;;;15.68;47.04;101274.13;102697;277;114666;-60
2023/04/03 06:32:47;;;;;;;2.10;1.20;;;;;;;15.04;44.96;101283.31;102735;277;94070;-59
2023/04/03 06:35:25;;;;;;;2.80;1.50;;;;;;;14.43;44.51;101289.15;102780;277;98111;-60
2023/04/03 06:38:09;;;;;;;3.60;1.60;;;;;;;14.27;44.68;101295.88;102692;277;118926;-59
2023/04/03 06:40:45;;;;;;;2.40;1.30;;;;;;;14.26;43.42;101296.33;102731;277;105895;-54
2023/04/03 06:43:23;;;;;;;2.90;1.40;;;;;;;13.73;43.93;101292.88;102682;277;112198;-53
2023/04/03 06:46:08;;;;;;;3.00;1.70;;;;;;;13.85;44.09;101293.38;102729;277;94725;-55
2023/04/03 06:48:49;;;;;;;4.30;1.70;;;;;;;13.48;43.84;101293.16;102524;277;97805;-53
2023/04/03 06:51:29;;;;;;;2.60;1.40;;;;;;;13.14;44.48;101296.89;102516;279;119357;-54
2023/04/03 06:54:09;;;;;;;4.00;1.60;;;;;;;13.25;44.25;101296.36;102742;277;104145;-54
2023/04/03 06:56:45;;;;;;;3.40;1.70;;;;;;;13.54;43.94;101297.05;102744;277;113982;-54
2023/04/03 06:59:23;;;;;;;3.30;1.80;;;;;;;14.39;42.82;101299.84;102784;277;94419;-58
2023/04/03 07:02:02;;;;;;;3.70;1.40;;;;;;;14.53;42.17;101306.29;102698;277;97812;-54
2023/04/03 07:04:39;;;;;;;3.50;1.50;;;;;;;14.89;41.73;101305.17;102733;277;118764;-53
2023/04/03 07:07:17;;;;;;;3.10;1.40;;;;;;;15.56;41.78;101303.38;102759;277;104317;-54
2023/04/03 07:09:53;;;;;;;3.40;1.50;;;;;;;15.41;40.91;101310.43;102501;277;113523;-54
2023/04/03 07:12:35;;;;;;;2.80;1.40;;;;;;;15.62;40.70;101308.95;102733;277;92838;-57
2023/04/03 07:15:14;;;;;;;3.20;1.60;;;;;;;15.91;40.23;101313.20;102741;277;95501;-58
2023/04/03 07:17:51;;;;;;;3.50;1.60;;;;;;;16.32;39.87;101313.59;102717;277;117864;-55
2023/04/03 07:20:27;;;;;;;2.60;1.40;;;;;;;16.25;40.16;101316.11;102752;277;105483;-54
2023/04/03 07:23:05;;;;;;;3.10;1.50;;;;;;;16.43;38.91;101311.73;102722;277;114738;-54
2023/04/03 07:25:48;;;;;;;3.80;1.60;;;;;;;16.34;38.78;101317.50;102720;277;95279;-54
2023/04/03 07:28:26;;;;;;;7.00;2.70;;;;;;;16.74;39.85;101311.76;102709;277;94990;-59
2023/04/03 07:31:10;;;;;;;3.90;1.50;;;;;;;16.60;38.02;101320.53;102735;277;118226;-54
2023/04/03 07:33:47;;;;;;;3.30;1.80;;;;;;;15.98;38.19;101319.95;102747;277;104740;-54
2023/04/03 07:36:33;;;;;;;3.30;1.40;;;;;;;16.05;37.68;101322.58;102542;277;115091;-58
2023/04/03 07:39:14;;;;;;;4.00;1.60;;;;;;;16.47;37.56;101320.31;102692;277;92793;-57
2023/04/03 07:42:00;;;;;;;3.10;1.60;;;;;;;16.91;37.55;101323.17;102731;277;96826;-54
2023/04/03 07:44:38;;;;;;;2.30;1.40;;;;;;;17.27;37.12;101318.98;102701;277;119157;-54
2023/04/03 07:47:23;;;;;;;4.00;1.60;;;;;;;17.48;36.72;101325.52;102733;277;106019;-53
2023/04/03 07:50:02;;;;;;;3.00;1.70;;;;;;;17.62;36.44;101324.27;102683;277;112552;-52
2023/04/03 07:52:42;;;;;;;2.90;1.60;;;;;;;17.51;36.80;101325.84;102725;277;95064;-58
2023/04/03 07:55:22;;;;;;;3.20;1.60;;;;;;;17.47;36.66;101326.38;102719;277;98425;-62
2023/04/03 07:58:06;;;;;;;2.30;1.30;;;;;;;17.61;35.60;101322.92;102723;277;121125;-56
2023/04/03 08:00:45;;;;;;;4.30;1.70;;;;;;;18.01;35.65;101327.38;102695;277;106801;-54
2023/04/03 08:03:22;;;;;;;4.30;2.00;;;;;;;18.42;35.71;101324.77;102749;277;113187;-54
2023/04/03 08:06:06;;;;;;;3.00;1.50;;;;;;;19.09;35.55;101321.92;102713;277;94584;-56
2023/04/03 08:08:54;;;;;;;3.50;1.80;;;;;;;19.04;35.05;101317.67;102767;277;97466;-55
2023/04/03 08:11:36;;;;;;;2.20;1.60;;;;;;;18.55;34.72;101324.42;102741;277;118518;-54
2023/04/03 08:14:18;;;;;;;2.90;1.50;;;;;;;18.08;34.81;101321.59;102738;277;106069;-54
2023/04/03 08:16:58;;;;;;;3.70;1.70;;;;;;;18.24;34.02;101325.11;102690;277;113553;-59
2023/04/03 08:19:37;;;;;;;2.20;1.20;;;;;;;17.98;33.35;101324.84;102661;277;93370;-62
2023/04/03 08:22:14;;;;;;;2.40;1.30;;;;;;;17.67;33.96;101322.20;102706;277;98130;-59
2023/04/03 08:24:52;;;;;;;3.50;1.50;;;;;;;17.70;33.52;101329.87;102698;277;119573;-59
2023/04/03 08:27:28;;;;;;;3.20;1.70;;;;;;;17.46;33.78;101325.63;102686;277;104606;-61
2023/04/03 08:30:07;;;;;;;2.90;1.70;;;;;;;17.39;31.92;101335.20;102739;277;113185;-60
2023/04/03 08:32:45;;;;;;;3.40;1.50;;;;;;;17.24;33.25;101330.65;102718;277;93069;-60
2023/04/03 08:35:21;;;;;;;3.50;1.50;;;;;;;17.65;33.20;101328.61;102712;277;96919;-60
2023/04/03 08:38:03;;;;;;;2.80;1.50;;;;;;;17.79;33.45;101333.91;102745;277;118096;-59
2023/04/03 08:40:43;;;;;;;3.50;1.70;;;;;;;17.71;33.75;101329.64;102746;277;106192;-60
2023/04/03 08:43:41;;;;;;;2.10;1.30;;;;;;;17.80;33.05;101333.11;102716;277;114402;-54
2023/04/03 08:46:24;;;;;;;5.60;1.80;;;;;;;17.80;33.13;101330.04;102713;277;92901;-60
2023/04/03 08:49:15;;;;;;;2.60;1.40;;;;;;;18.37;32.79;101338.67;102644;277;97178;-60
2023/04/03 08:51:54;;;;;;;3.10;1.50;;;;;;;18.69;32.31;101329.65;102741;277;119102;-58
2023/04/03 08:54:45;;;;;;;2.30;1.50;;;;;;;18.34;32.38;101332.30;102679;277;104463;-58
2023/04/03 08:57:36;;;;;;;2.80;1.30;;;;;;;17.68;32.02;101334.51;102707;277;114467;-53
2023/04/03 09:00:24;;;;;;;2.70;1.30;;;;;;;18.11;31.90;101330.49;102708;277;93746;-55
2023/04/03 09:02:59;;;;;;;1.60;1.10;;;;;;;18.53;32.06;101338.75;102720;277;96197;-58
2023/04/03 09:05:46;;;;;;;1.90;1.10;;;;;;;17.79;30.58;101332.94;102744;277;118758;-61
2023/04/03 09:08:34;;;;;;;1.80;1.10;;;;;;;16.96;29.70;101346.30;102550;277;107017;-54
2023/04/03 09:11:22;;;;;;;3.80;1.20;;;;;;;17.19;29.96;101335.92;102682;277;114615;-60
2023/04/03 09:14:04;;;;;;;2.90;1.20;;;;;;;16.91;27.52;101338.02;102711;277;93857;-59
2023/04/03 09:16:53;;;;;;;2.40;1.70;;;;;;;16.47;29.04;101341.99;102726;277;95928;-60
2023/04/03 09:19:41;;;;;;;5.20;4.60;;;;;;;16.35;29.08;101341.38;102722;277;119782;-59
2023/04/03 09:22:25;;;;;;;9.40;8.50;;;;;;;15.22;29.01;101339.17;102758;277;104013;-55
2023/04/03 09:25:11;;;;;;;8.10;7.30;;;;;;;15.05;29.57;101351.71;102733;277;114487;-54
2023/04/03 09:27:50;;;;;;;2.70;1.70;;;;;;;14.75;28.57;101348.92;102742;277;95071;-55
2023/04/03 09:30:31;;;;;;;2.60;1.40;;;;;;;14.71;28.90;101344.23;102719;277;97931;-55
2023/04/03 09:33:07;;;;;;;3.00;1.20;;;;;;;14.69;29.04;101348.88;102771;277;119676;-59
2023/04/03 09:35:44;;;;;;;4.70;1.30;;;;;;;14.75;29.68;101342.75;102728;277;106105;-58
2023/04/03 09:38:24;;;;;;;1.50;1.10;;;;;;;14.49;29.55;101356.35;102728;277;114530;-59
2023/04/03 09:41:17;;;;;;;2.50;1.10;;;;;;;13.43;29.14;101355.05;102748;277;94929;-56
2023/04/03 09:43:58;;;;;;;2.50;1.30;;;;;;;12.51;29.16;101362.83;102743;277;97232;-59
2023/04/03 09:46:37;;;;;;;2.30;1.10;;;;;;;11.84;30.26;101354.98;102717;277;119874;-59
2023/04/03 09:49:15;;;;;;;3.30;1.90;;;;;;;11.85;30.45;101348.80;102723;277;104390;-59
2023/04/03 09:51:53;;;;;;;2.80;1.10;;;;;;;11.26;31.04;101352.71;102689;277;114675;-59
2023/04/03 09:54:40;;;;;;;4.20;1.50;;;;;;;11.13;31.53;101355.33;102718;277;94903;-59
2023/04/03 09:57:17;;;;;;;4.80;1.60;;;;;;;10.98;32.06;101356.11;102712;277;97333;-53
2023/04/03 10:00:05;;;;;;;2.10;1.30;;;;;;;10.84;33.17;101357.24;102725;277;117615;-54
2023/04/03 10:02:44;;;;;;;2.20;1.30;;;;;;;10.40;33.77;101363.14;102737;277;103971;-54
2023/04/03 10:05:37;;;;;;;3.20;2.20;;;;;;;10.22;33.86;101359.39;102706;277;114692;-55
2023/04/03 10:08:31;;;;;;;7.90;7.20;;;;;;;10.02;34.39;101354.61;102689;277;95020;-60
2023/04/03 10:11:18;;;;;;;5.20;3.70;;;;;;;9.39;34.24;101368.82;102739;277;96995;-55
2023/04/03 10:14:00;;;;;;;1.70;1.10;;;;;;;9.02;33.96;101365.84;102560;277;118968;-53
2023/04/03 10:16:43;;;;;;;2.60;1.20;;;;;;;9.24;33.81;101360.52;102743;277;105379;-58
2023/04/03 10:19:42;;;;;;;3.10;1.50;;;;;;;9.27;34.93;101371.17;102693;277;114363;-58
2023/04/03 10:22:40;;;;;;;3.30;1.80;;;;;;;8.94;35.56;101368.88;102729;277;93479;-59
2023/04/03 10:25:30;;;;;;;29.20;19.60;;;;;;;8.35;35.42;101372.46;102022;277;98546;-57
2023/04/03 10:28:13;;;;;;;27.70;18.70;;;;;;;8.12;35.52;101368.81;102711;277;118843;-54
2023/04/03 10:30:59;;;;;;;7.10;2.70;;;;;;;8.53;35.95;101361.02;102744;277;105945;-54
2023/04/03 10:33:49;;;;;;;4.50;1.50;;;;;;;8.87;36.19;101353.73;102705;277;114117;-57
2023/04/03 10:36:38;;;;;;;2.60;1.20;;;;;;;8.65;35.74;101364.41;102708;277;95283;-58
2023/04/03 10:39:25;;;;;;;2.00;1.10;;;;;;;8.32;36.10;101363.45;102718;277;97862;-59
2023/04/03 10:42:09;;;;;;;2.50;0.90;;;;;;;7.87;36.46;101365.17;102721;277;118635;-60
2023/04/03 10:45:02;;;;;;;2.10;1.00;;;;;;;7.75;36.70;101368.03;102760;266;105949;-59
2023/04/03 10:47:51;;;;;;;2.20;1.10;;;;;;;7.92;36.31;101356.99;102698;277;112478;-54
2023/04/03 10:50:46;;;;;;;2.60;1.20;;;;;;;7.97;36.42;101356.72;102723;277;95034;-55
2023/04/03 10:53:41;;;;;;;2.40;1.00;;;;;;;8.25;37.02;101351.20;102724;277;97998;-59
2023/04/03 10:56:30;;;;;;;3.00;0.80;;;;;;;8.44;36.66;101350.23;102695;277;119140;-58
2023/04/03 10:59:19;;;;;;;2.70;1.70;;;;;;;8.33;35.82;101348.31;102707;277;105908;-59
2023/04/03 11:02:03;;;;;;;3.40;1.10;;;;;;;8.23;35.91;101347.65;102722;277;113825;-55
2023/04/03 11:04:42;;;;;;;2.40;1.10;;;;;;;8.20;36.52;101347.38;102711;277;94694;-54
2023/04/03 11:07:24;;;;;;;3.80;2.50;;;;;;;8.02;36.94;101350.77;102724;277;96792;-55
2023/04/03 11:10:07;;;;;;;7.00;5.50;;;;;;;7.78;36.70;101345.58;102681;277;120325;-55
2023/04/03 11:12:49;;;;;;;2.90;2.20;;;;;;;7.67;36.84;101351.92;102715;277;105565;-54
2023/04/03 11:15:36;;;;;;;2.60;1.00;;;;;;;7.38;36.82;101357.19;102692;277;115156;-54
2023/04/03 11:18:21;;;;;;;2.10;1.10;;;;;;;7.66;37.03;101345.85;102716;277;93460;-59
2023/04/03 11:21:05;;;;;;;2.50;0.90;;;;;;;7.82;35.82;101349.40;102715;277;97886;-56
2023/04/03 11:23:45;;;;;;;2.50;0.80;;;;;;;7.75;35.75;101343.79;102724;277;119212;-61
2023/04/03 11:26:23;;;;;;;2.40;0.80;;;;;;;7.62;35.83;101340.73;102731;277;105075;-54
2023/04/03 11:29:12;;;;;;;4.60;1.00;;;;;;;7.54;36.52;101328.45;102694;277;114242;-55
2023/04/03 11:32:08;;;;;;;2.00;1.00;;;;;;;7.75;36.47;101331.63;102593;277;93733;-58
2023/04/03 11:34:51;;;;;;;4.60;1.80;;;;;;;7.57;36.54;101331.73;102748;277;97514;-59
2023/04/03 11:37:35;;;;;;;2.10;1.50;;;;;;;7.49;36.82;101334.27;102736;277;119906;-59
2023/04/03 11:40:26;;;;;;;2.60;1.20;;;;;;;7.51;37.07;101331.06;102722;277;105753;-60
2023/04/03 11:43:18;;;;;;;6.30;5.30;;;;;;;7.65;37.47;101331.83;102669;277;114465;-60
2023/04/03 11:46:06;;;;;;;3.60;1.70;;;;;;;7.53;37.21;101329.62;102709;277;92551;-58
2023/04/03 11:48:56;;;;;;;1.80;1.10;;;;;;;7.75;37.47;101324.05;102732;277;97639;-56
2023/04/03 11:52:01;;;;;;;5.30;1.40;;;;;;;7.71;37.21;101320.61;102744;277;118512;-60
2023/04/03 11:55:03;;;;;;;2.60;1.00;;;;;;;7.46;37.40;101325.45;102760;277;104699;-59
2023/04/03 11:58:15;;;;;;;2.20;1.00;;;;;;;7.38;37.61;101323.36;102701;277;114153;-55
2023/04/03 12:00:59;;;;;;;1.70;0.90;;;;;;;7.24;37.73;101318.10;102715;277;93857;-55
2023/04/03 12:04:08;;;;;;;3.50;1.00;;;;;;;7.09;37.61;101327.91;102732;265;97620;-59
2023/04/03 12:07:17;;;;;;;9.60;8.40;;;;;;;6.91;37.39;101331.19;102753;277;119307;-54
2023/04/03 12:10:03;;;;;;;4.90;3.40;;;;;;;7.03;37.74;101320.09;102762;277;105326;-54
2023/04/03 12:12:57;;;;;;;2.30;1.40;;;;;;;7.27;37.51;101313.27;102773;277;113201;-56
2023/04/03 12:15:59;;;;;;;4.40;1.00;;;;;;;7.14;37.55;101325.79;102712;277;93006;-54
2023/04/03 12:19:25;;;;;;;2.60;0.90;;;;;;;6.89;37.45;101329.06;102748;277;96875;-54
2023/04/03 12:22:20;;;;;;;2.60;1.00;;;;;;;6.98;37.41;101330.95;102695;277;120181;-55
2023/04/03 12:25:04;;;;;;;2.80;1.00;;;;;;;6.91;37.42;101326.20;102715;277;106020;-55
2023/04/03 12:27:45;;;;;;;2.10;0.80;;;;;;;6.98;37.82;101311.42;102679;277;114823;-59
2023/04/03 12:30:31;;;;;;;2.10;0.90;;;;;;;7.14;38.10;101312.02;102704;277;92948;-59
2023/04/03 12:33:40;;;;;;;4.10;1.20;;;;;;;7.26;37.29;101310.55;102738;277;97067;-55